Time;durP1;ratioP1;P1;durP2;ratioP2;P2;SDS_P1;SDS_P2;PMS_P1;PMS_P2;Temp;Humidity;BMP_temperature;BMP_pressure;BME280_temperature;BME280_humidity;BME280_pressure;Samples;Min_cycle;Max_cycle;Signal;HPM_P1;HPM_P2
2023/08/30 00:02:05;;;;;;;5.87;3.90;;;;;;;21.31;62.00;98393.28;4371584;32;35048;-72
2023/08/30 00:04:33;;;;;;;7.50;4.50;;;;;;;21.16;62.52;98397.12;4368629;32;34225;-72
2023/08/30 00:07:01;;;;;;;7.07;3.85;;;;;;;21.50;62.12;98397.00;4365370;32;33517;-73
2023/08/30 00:09:28;;;;;;;7.32;4.15;;;;;;;21.54;62.12;98403.66;4372110;32;32481;-72
2023/08/30 00:11:56;;;;;;;5.82;3.25;;;;;;;21.54;61.85;98407.25;4373871;32;34894;-72
2023/08/30 00:14:23;;;;;;;9.85;3.65;;;;;;;21.39;62.41;98406.69;4370846;32;33783;-73
2023/08/30 00:16:51;;;;;;;5.03;3.70;;;;;;;21.55;61.56;98414.34;4366656;32;33570;-73
2023/08/30 00:19:19;;;;;;;6.60;3.75;;;;;;;21.40;62.34;98413.81;4371139;32;33475;-72
2023/08/30 00:21:46;;;;;;;7.55;4.87;;;;;;;21.52;61.94;98419.41;4363755;32;35196;-72
2023/08/30 00:24:14;;;;;;;6.28;4.25;;;;;;;21.06;63.72;98410.38;4371042;32;33841;-73
2023/08/30 00:26:42;;;;;;;10.82;5.87;;;;;;;21.27;63.49;98409.22;4373913;32;34436;-71
2023/08/30 00:29:09;;;;;;;6.80;4.28;;;;;;;21.10;64.31;98414.31;4372033;32;33953;-72
2023/08/30 00:31:37;;;;;;;7.75;3.92;;;;;;;21.33;63.77;98421.13;4373519;32;35149;-72
2023/08/30 00:34:05;;;;;;;11.18;5.78;;;;;;;21.36;63.99;98416.13;4367504;32;35001;-72
2023/08/30 00:36:33;;;;;;;8.13;5.25;;;;;;;21.07;64.80;98414.75;4363201;32;33701;-72
2023/08/30 00:39:00;;;;;;;9.80;5.37;;;;;;;21.42;63.19;98422.59;4371331;32;34506;-71
2023/08/30 00:41:28;;;;;;;10.80;6.68;;;;;;;21.56;62.74;98420.63;4366445;32;34036;-72
2023/08/30 00:43:56;;;;;;;7.30;5.15;;;;;;;21.34;63.68;98417.34;4369056;32;34171;-71
2023/08/30 00:46:24;;;;;;;9.48;5.70;;;;;;;21.51;63.09;98418.56;4373962;32;33749;-71
2023/08/30 00:48:52;;;;;;;9.95;4.95;;;;;;;21.43;63.19;98415.25;4352489;32;34667;-71
2023/08/30 00:51:20;;;;;;;9.07;5.93;;;;;;;21.23;63.72;98424.31;4368584;32;35190;-71
2023/08/30 00:53:48;;;;;;;8.70;5.82;;;;;;;20.82;65.40;98428.19;4370209;32;34844;-71
2023/08/30 00:56:16;;;;;;;11.57;7.22;;;;;;;20.88;65.79;98431.97;4371943;32;35273;-72
2023/08/30 00:58:43;;;;;;;8.90;5.95;;;;;;;20.92;65.38;98430.47;4355886;32;34988;-72
2023/08/30 01:01:13;;;;;;;10.73;4.45;;;;;;;21.15;64.85;98433.56;4359025;32;33882;-71
2023/08/30 01:03:41;;;;;;;8.18;5.72;;;;;;;21.54;63.30;98428.16;4369460;32;35139;-71
2023/08/30 01:06:09;;;;;;;8.57;4.82;;;;;;;21.23;64.37;98427.03;4370332;32;34264;-72
2023/08/30 01:08:37;;;;;;;9.40;5.40;;;;;;;21.43;63.25;98432.41;4373585;32;34740;-72
2023/08/30 01:11:27;;;;;;;9.18;6.30;;;;;;;21.32;63.63;98438.53;4372016;32;33220;-72
2023/08/30 01:14:07;;;;;;;8.57;5.03;;;;;;;21.46;63.16;98433.88;4370344;32;34095;-71
2023/08/30 01:16:35;;;;;;;7.35;5.07;;;;;;;21.16;63.57;98429.78;4361626;32;34473;-72
2023/08/30 01:19:16;;;;;;;10.32;5.40;;;;;;;21.48;62.71;98420.91;4374164;32;34693;-72
2023/08/30 01:21:56;;;;;;;10.10;6.37;;;;;;;21.10;64.37;98422.47;4359140;32;33650;-72
2023/08/30 01:24:29;;;;;;;10.35;5.55;;;;;;;21.17;64.43;98426.00;4361476;32;33985;-72
2023/08/30 01:27:09;;;;;;;8.68;4.40;;;;;;;21.09;64.55;98414.50;4359697;32;33320;-72
2023/08/30 01:29:40;;;;;;;10.05;5.15;;;;;;;21.17;64.10;98409.69;4355405;32;33580;-72
2023/08/30 01:32:09;;;;;;;7.90;4.85;;;;;;;21.13;63.98;98405.72;4361058;32;33789;-73
2023/08/30 01:34:39;;;;;;;10.02;5.65;;;;;;;21.28;63.64;98412.78;4366818;32;33904;-72
2023/08/30 01:37:08;;;;;;;10.68;6.87;;;;;;;21.45;63.11;98413.16;4371929;32;34448;-72
2023/08/30 01:39:36;;;;;;;9.10;4.62;;;;;;;21.39;62.87;98418.41;4372885;32;33862;-74
2023/08/30 01:42:05;;;;;;;7.05;4.07;;;;;;;21.58;61.83;98413.94;4341669;32;32771;-73
2023/08/30 01:44:33;;;;;;;10.82;5.15;;;;;;;21.33;62.84;98402.91;4343644;32;34674;-73
2023/08/30 01:47:02;;;;;;;10.27;5.65;;;;;;;21.27;62.80;98402.94;4340990;32;33565;-73
2023/08/30 01:49:34;;;;;;;11.73;6.05;;;;;;;21.09;63.82;98414.50;4342375;32;34680;-73
2023/08/30 01:52:02;;;;;;;6.57;4.03;;;;;;;20.77;65.09;98411.72;4329816;32;35816;-73
2023/08/30 01:54:30;;;;;;;8.15;4.62;;;;;;;20.39;66.16;98408.81;4337395;32;33924;-71
2023/08/30 01:56:58;;;;;;;7.20;4.15;;;;;;;20.47;66.17;98408.56;4341522;32;34414;-72
2023/08/30 01:59:26;;;;;;;5.30;3.15;;;;;;;21.06;63.53;98410.38;4342838;32;34232;-71
2023/08/30 02:01:53;;;;;;;9.82;4.90;;;;;;;21.43;62.31;98407.94;4342501;32;35527;-71
2023/08/30 02:04:22;;;;;;;10.45;5.03;;;;;;;21.21;63.21;98399.19;4343678;32;33836;-72
2023/08/30 02:06:55;;;;;;;10.48;4.28;;;;;;;20.96;63.97;98409.13;4339976;32;33331;-72
2023/08/30 02:09:23;;;;;;;10.35;5.87;;;;;;;21.24;63.18;98408.81;4327794;33;33314;-72
2023/08/30 02:11:52;;;;;;;6.55;4.20;;;;;;;21.53;62.12;98413.72;4337684;32;34278;-72
2023/08/30 02:14:21;;;;;;;11.77;7.65;;;;;;;21.47;62.71;98409.16;4355578;32;33728;-72
2023/08/30 02:16:49;;;;;;;11.73;5.12;;;;;;;21.38;62.55;98413.19;4365151;32;33742;-73
2023/08/30 02:19:20;;;;;;;11.27;4.97;;;;;;;21.30;63.17;98410.69;4366536;32;34799;-72
2023/08/30 02:21:48;;;;;;;12.85;5.45;;;;;;;21.58;62.33;98419.38;4360472;32;35295;-71
2023/08/30 02:24:18;;;;;;;9.18;5.40;;;;;;;21.59;62.24;98418.31;4356359;32;32821;-72
2023/08/30 02:26:45;;;;;;;10.32;4.97;;;;;;;21.27;63.39;98416.56;4364748;32;33542;-72
2023/08/30 02:29:13;;;;;;;10.25;4.70;;;;;;;21.51;62.86;98424.03;4372170;32;34708;-70
2023/08/30 02:31:41;;;;;;;12.18;6.30;;;;;;;21.33;63.00;98421.97;4364645;32;35276;-71
2023/08/30 02:34:08;;;;;;;13.23;5.75;;;;;;;21.16;64.32;98429.78;4372832;32;34248;-71
2023/08/30 02:36:37;;;;;;;13.82;5.25;;;;;;;21.49;62.98;98430.72;4374003;32;33584;-70
2023/08/30 02:39:04;;;;;;;10.52;5.47;;;;;;;21.19;64.00;98431.25;4370406;32;33845;-71
2023/08/30 02:41:32;;;;;;;11.52;7.97;;;;;;;21.02;64.23;98433.59;4365793;32;34707;-71
2023/08/30 02:44:00;;;;;;;11.27;5.82;;;;;;;21.39;63.41;98434.75;4369564;32;35174;-70
2023/08/30 02:46:27;;;;;;;9.90;7.32;;;;;;;21.54;62.36;98433.63;4370543;32;33367;-71
2023/08/30 02:48:55;;;;;;;5.95;3.90;;;;;;;21.14;63.94;98437.31;4372098;32;33505;-70
2023/08/30 02:51:23;;;;;;;8.75;6.15;;;;;;;21.54;62.29;98431.75;4363130;32;33894;-70
2023/08/30 02:53:50;;;;;;;7.35;3.97;;;;;;;21.24;63.49;98428.69;4367584;32;34312;-70
2023/08/30 02:56:18;;;;;;;5.90;3.28;;;;;;;21.35;63.11;98430.78;4370591;32;34274;-71
2023/08/30 02:58:46;;;;;;;6.97;4.10;;;;;;;21.34;63.15;98434.50;4368492;32;34284;-71
2023/08/30 03:01:14;;;;;;;10.88;5.93;;;;;;;21.13;63.93;98432.09;4363608;32;33672;-71
2023/08/30 03:03:41;;;;;;;9.18;4.68;;;;;;;21.27;63.30;98433.72;4364237;32;35151;-71
2023/08/30 03:06:09;;;;;;;15.57;5.78;;;;;;;21.24;63.50;98433.31;4364569;32;34391;-71
2023/08/30 03:08:38;;;;;;;16.10;5.90;;;;;;;21.33;63.05;98440.19;4365148;32;34990;-71
2023/08/30 03:11:11;;;;;;;10.07;4.80;;;;;;;21.29;63.34;98430.78;4371622;32;35272;-70
2023/08/30 03:13:39;;;;;;;10.30;6.65;;;;;;;21.10;63.87;98433.34;4368797;32;34124;-71
2023/08/30 03:16:13;;;;;;;9.10;6.15;;;;;;;21.27;63.72;98432.88;4373498;32;34683;-70
2023/08/30 03:18:42;;;;;;;9.73;6.75;;;;;;;21.16;63.47;98432.50;4371231;32;33956;-71
2023/08/30 03:21:11;;;;;;;8.52;4.80;;;;;;;21.05;64.19;98427.72;4372944;32;32942;-71
2023/08/30 03:23:39;;;;;;;11.30;5.47;;;;;;;20.84;64.96;98423.41;4370932;32;35688;-72
2023/08/30 03:26:10;;;;;;;9.18;3.67;;;;;;;21.20;63.86;98426.62;4360020;32;33620;-72
2023/08/30 03:28:38;;;;;;;7.82;4.47;;;;;;;21.32;63.09;98433.91;4368198;32;33652;-72
2023/08/30 03:31:16;;;;;;;13.07;6.45;;;;;;;20.99;64.47;98433.19;4359195;32;35044;-72
2023/08/30 03:33:45;;;;;;;9.38;5.28;;;;;;;21.11;64.24;98431.47;4365611;32;33894;-71
2023/08/30 03:36:14;;;;;;;11.68;6.30;;;;;;;21.06;64.65;98434.84;4370388;32;33466;-71
2023/08/30 03:38:42;;;;;;;17.42;6.62;;;;;;;20.61;65.75;98432.03;4371166;32;33721;-71
2023/08/30 03:41:11;;;;;;;9.38;5.28;;;;;;;20.92;65.03;98431.31;4372523;32;34091;-72
2023/08/30 03:43:39;;;;;;;12.23;7.12;;;;;;;20.76;65.51;98437.19;4371132;32;34225;-72
2023/08/30 03:46:09;;;;;;;9.90;5.28;;;;;;;20.96;65.05;98430.87;4369559;32;33347;-72
2023/08/30 03:48:37;;;;;;;11.75;4.70;;;;;;;20.98;64.99;98440.50;4370595;32;33531;-72
2023/08/30 03:51:05;;;;;;;12.05;6.03;;;;;;;21.08;64.37;98437.34;4371552;32;33684;-72
2023/08/30 03:53:33;;;;;;;9.35;4.43;;;;;;;20.33;67.66;98443.06;4364335;32;34870;-71
2023/08/30 03:56:00;;;;;;;11.60;6.32;;;;;;;20.57;67.07;98438.06;4367699;32;34375;-73
2023/08/30 03:58:28;;;;;;;11.18;5.00;;;;;;;21.11;64.77;98439.63;4370571;32;33839;-71
2023/08/30 04:00:56;;;;;;;7.45;4.03;;;;;;;20.92;65.43;98444.06;4362707;32;33856;-72
2023/08/30 04:03:25;;;;;;;8.57;4.93;;;;;;;21.05;64.84;98444.03;4371892;32;33917;-72
2023/08/30 04:05:56;;;;;;;10.80;5.53;;;;;;;21.33;63.79;98434.75;4368201;32;33996;-72
2023/08/30 04:08:24;;;;;;;8.07;4.03;;;;;;;21.38;63.56;98451.31;4371190;32;35020;-72
2023/08/30 04:10:53;;;;;;;10.50;4.62;;;;;;;21.34;63.53;98447.28;4365411;32;34181;-72
2023/08/30 04:13:20;;;;;;;13.00;7.72;;;;;;;21.62;62.33;98455.16;4366520;32;34839;-72
2023/08/30 04:15:48;;;;;;;8.95;3.83;;;;;;;21.28;63.35;98456.31;4366958;32;33567;-72
2023/08/30 04:18:16;;;;;;;15.07;6.47;;;;;;;21.44;63.15;98453.13;4374168;32;33845;-72
2023/08/30 04:20:45;;;;;;;6.62;3.67;;;;;;;20.85;65.20;98454.13;4371659;32;34275;-72
2023/08/30 04:23:13;;;;;;;12.00;4.62;;;;;;;21.00;64.64;98459.34;4372397;32;34859;-73
2023/08/30 04:25:41;;;;;;;8.20;4.12;;;;;;;21.26;63.65;98467.44;4372189;32;33585;-72
2023/08/30 04:28:09;;;;;;;10.82;4.95;;;;;;;21.16;63.96;98470.59;4373073;32;33545;-72
2023/08/30 04:30:38;;;;;;;10.10;5.07;;;;;;;20.62;65.36;98463.59;4370532;32;35043;-72
2023/08/30 04:33:06;;;;;;;9.75;4.93;;;;;;;21.20;63.54;98462.00;4348569;32;34656;-73
2023/08/30 04:35:34;;;;;;;9.60;4.97;;;;;;;21.32;63.00;98476.63;4358163;32;33389;-72
2023/08/30 04:38:03;;;;;;;9.55;4.57;;;;;;;21.48;62.62;98480.78;4349657;32;33640;-70
2023/08/30 04:40:31;;;;;;;9.85;4.40;;;;;;;21.25;63.31;98483.94;4351655;32;34087;-72
2023/08/30 04:42:59;;;;;;;9.35;5.00;;;;;;;21.33;63.00;98478.28;4358298;32;34693;-71
2023/08/30 04:45:27;;;;;;;15.73;5.35;;;;;;;21.05;63.35;98479.41;4353284;32;33412;-73
2023/08/30 04:47:55;;;;;;;9.77;5.05;;;;;;;21.39;62.61;98482.91;4352454;32;34517;-74
2023/08/30 04:50:24;;;;;;;10.00;6.05;;;;;;;21.50;62.07;98484.94;4358143;32;34841;-73
2023/08/30 04:52:52;;;;;;;10.85;5.12;;;;;;;21.63;61.88;98473.16;4353603;32;34176;-74
2023/08/30 04:55:19;;;;;;;7.25;4.28;;;;;;;21.20;62.91;98471.00;4353507;32;33624;-73
2023/08/30 04:57:47;;;;;;;11.75;4.90;;;;;;;21.49;62.71;98469.66;4356328;32;33757;-73
2023/08/30 05:00:16;;;;;;;8.65;5.25;;;;;;;20.19;66.16;98468.53;4356965;32;34182;-73
2023/08/30 05:02:46;;;;;;;8.55;5.10;;;;;;;21.32;62.49;98463.00;4355395;32;33737;-73
2023/08/30 05:05:14;;;;;;;11.43;4.28;;;;;;;21.39;62.24;98469.28;4357280;32;34400;-73
2023/08/30 05:07:42;;;;;;;10.15;5.15;;;;;;;21.45;62.23;98475.78;4376551;32;34113;-73
2023/08/30 05:10:10;;;;;;;15.98;4.70;;;;;;;21.02;63.48;98471.66;4376599;32;33923;-73
2023/08/30 05:12:38;;;;;;;16.40;6.40;;;;;;;21.12;62.77;98474.81;4375134;32;32862;-73
2023/08/30 05:15:06;;;;;;;9.07;5.50;;;;;;;21.20;62.74;98471.00;4375734;32;34993;-73
2023/08/30 05:17:34;;;;;;;8.38;4.53;;;;;;;21.28;62.38;98475.34;4370476;32;35126;-73
2023/08/30 05:20:02;;;;;;;8.07;4.40;;;;;;;21.17;62.64;98471.44;4374687;32;33712;-73
2023/08/30 05:22:30;;;;;;;10.73;4.60;;;;;;;21.33;61.95;98475.56;4373800;32;34883;-73
2023/08/30 05:24:58;;;;;;;7.47;4.18;;;;;;;21.32;62.10;98472.00;4374394;32;34027;-72
2023/08/30 05:27:26;;;;;;;7.87;3.87;;;;;;;21.16;62.69;98472.50;4375861;32;34581;-73
2023/08/30 05:29:55;;;;;;;10.88;4.72;;;;;;;21.08;62.91;98478.16;4373459;32;34046;-70
2023/08/30 05:32:23;;;;;;;8.00;5.32;;;;;;;21.20;61.99;98479.16;4342872;32;35264;-73
2023/08/30 05:34:51;;;;;;;10.63;5.07;;;;;;;21.24;62.15;98487.72;4342524;32;33487;-72
2023/08/30 05:37:19;;;;;;;11.15;5.70;;;;;;;21.02;63.59;98484.44;4340267;32;33262;-72
2023/08/30 05:39:49;;;;;;;12.75;6.30;;;;;;;21.13;62.87;98490.06;4342279;32;34098;-72
2023/08/30 05:42:16;;;;;;;7.50;5.07;;;;;;;21.42;62.05;98495.25;4339334;32;35214;-72
2023/08/30 05:44:44;;;;;;;8.30;4.50;;;;;;;21.21;63.09;98493.59;4341481;32;34888;-72
2023/08/30 05:47:14;;;;;;;11.07;5.62;;;;;;;21.22;62.68;98496.12;4340908;32;34662;-73
2023/08/30 05:49:42;;;;;;;9.60;5.32;;;;;;;21.06;63.46;98499.28;4341097;32;32974;-73
2023/08/30 05:52:10;;;;;;;8.45;3.75;;;;;;;21.41;62.35;98499.84;4342192;32;33850;-73
2023/08/30 05:54:37;;;;;;;8.98;5.45;;;;;;;21.33;62.25;98498.16;4342254;32;32684;-73
2023/08/30 05:57:05;;;;;;;11.95;6.65;;;;;;;21.40;61.89;98495.44;4342607;32;33543;-73
2023/08/30 05:59:34;;;;;;;9.63;4.50;;;;;;;21.63;61.40;98493.03;4341832;32;34141;-73
2023/08/30 06:02:04;;;;;;;7.07;4.28;;;;;;;21.62;61.64;98496.00;4341446;32;33696;-73
2023/08/30 06:04:32;;;;;;;8.63;4.62;;;;;;;21.85;60.56;98488.12;4370645;32;33253;-73
2023/08/30 06:06:59;;;;;;;9.02;4.68;;;;;;;21.43;61.45;98480.59;4373498;32;33969;-73
2023/08/30 06:09:27;;;;;;;7.97;4.90;;;;;;;21.69;61.28;98498.69;4355293;32;34868;-74
2023/08/30 06:11:55;;;;;;;6.45;3.78;;;;;;;21.80;60.80;98500.75;4350213;32;32842;-74
2023/08/30 06:14:23;;;;;;;12.10;6.10;;;;;;;21.43;62.30;98499.63;4352833;32;33381;-74
2023/08/30 06:16:50;;;;;;;10.45;5.35;;;;;;;21.16;63.04;98507.84;4355024;32;34970;-74
2023/08/30 06:19:18;;;;;;;9.07;4.05;;;;;;;20.98;63.29;98513.13;4350727;32;33699;-74
2023/08/30 06:21:45;;;;;;;10.65;4.80;;;;;;;20.83;62.81;98518.75;4358359;32;34585;-74
2023/08/30 06:24:13;;;;;;;15.88;5.90;;;;;;;20.36;64.52;98512.47;4357624;32;33465;-74
2023/08/30 06:26:41;;;;;;;8.68;4.10;;;;;;;21.04;62.38;98513.09;4361076;32;33452;-73
2023/08/30 06:29:08;;;;;;;7.95;3.92;;;;;;;21.03;62.48;98518.75;4355968;32;34866;-74
2023/08/30 06:31:36;;;;;;;9.35;5.07;;;;;;;21.49;61.25;98517.84;4350615;32;34629;-73
2023/08/30 06:34:04;;;;;;;8.63;5.87;;;;;;;20.69;63.78;98520.66;4353271;32;33163;-73
2023/08/30 06:36:32;;;;;;;9.45;5.65;;;;;;;21.29;62.09;98515.97;4352220;32;32197;-74
2023/08/30 06:39:00;;;;;;;8.65;4.93;;;;;;;21.28;62.33;98525.16;4349359;32;34005;-74
2023/08/30 06:41:28;;;;;;;10.75;6.57;;;;;;;21.92;60.36;98522.66;4372015;32;33704;-74
2023/08/30 06:43:56;;;;;;;8.68;4.37;;;;;;;21.60;61.42;98522.59;4373141;32;34506;-74
2023/08/30 06:46:24;;;;;;;10.05;4.95;;;;;;;21.88;61.01;98522.28;4371056;32;34733;-74
2023/08/30 06:48:52;;;;;;;7.93;5.75;;;;;;;22.04;60.60;98520.94;4375215;32;33921;-74
2023/08/30 06:51:19;;;;;;;7.90;4.22;;;;;;;22.00;60.40;98517.81;4373568;32;35110;-74
2023/08/30 06:53:47;;;;;;;7.40;3.80;;;;;;;21.66;60.69;98520.91;4372347;32;33385;-74
2023/08/30 06:56:15;;;;;;;11.60;6.72;;;;;;;21.72;60.72;98517.31;4370188;32;34298;-74
2023/08/30 06:58:42;;;;;;;9.10;5.10;;;;;;;21.90;60.59;98519.34;4370787;32;35081;-74
2023/08/30 07:01:10;;;;;;;9.35;5.90;;;;;;;21.79;60.71;98518.12;4366244;32;32943;-74
2023/08/30 07:03:39;;;;;;;14.48;6.60;;;;;;;21.95;59.85;98517.63;4363111;32;273498;-74
2023/08/30 07:06:07;;;;;;;11.48;4.43;;;;;;;21.35;62.81;98512.44;4368414;32;33391;-74
2023/08/30 07:08:35;;;;;;;10.73;7.45;;;;;;;21.63;61.31;98516.72;4370500;32;34072;-74
2023/08/30 07:11:03;;;;;;;10.52;5.82;;;;;;;21.74;61.04;98520.69;4370610;32;33835;-73
2023/08/30 07:13:31;;;;;;;10.07;5.47;;;;;;;21.51;61.58;98523.88;4372056;32;33398;-73
2023/08/30 07:15:58;;;;;;;13.25;7.80;;;;;;;21.73;60.76;98530.69;4371621;32;33810;-74
2023/08/30 07:18:26;;;;;;;10.40;4.25;;;;;;;21.38;62.09;98527.50;4371148;32;35250;-74
2023/08/30 07:20:54;;;;;;;10.10;6.40;;;;;;;21.78;60.66;98525.47;4365525;32;34326;-73
2023/08/30 07:23:21;;;;;;;9.70;5.03;;;;;;;21.66;60.96;98529.91;4370323;32;34760;-75
2023/08/30 07:25:51;;;;;;;10.55;4.82;;;;;;;21.50;60.96;98536.66;4370241;32;33698;-72
2023/08/30 07:28:19;;;;;;;9.70;5.55;;;;;;;21.49;61.67;98539.63;4368921;32;34067;-74
2023/08/30 07:30:46;;;;;;;7.35;4.65;;;;;;;21.66;60.70;98543.53;4372863;32;33448;-75
2023/08/30 07:33:14;;;;;;;11.57;7.50;;;;;;;22.05;58.93;98541.66;4369044;32;34238;-74
2023/08/30 07:35:42;;;;;;;6.45;3.37;;;;;;;21.66;60.71;98545.41;4369079;32;32011;-74
2023/08/30 07:38:10;;;;;;;9.70;5.22;;;;;;;21.51;62.11;98551.97;4368529;32;34377;-76
2023/08/30 07:40:38;;;;;;;7.00;3.37;;;;;;;21.70;61.20;98552.94;4368306;32;33763;-74
2023/08/30 07:43:06;;;;;;;12.15;5.22;;;;;;;21.73;61.08;98555.22;4369545;32;33617;-74
2023/08/30 07:45:34;;;;;;;9.43;5.03;;;;;;;21.87;60.50;98554.13;4370511;32;33647;-72
2023/08/30 07:48:02;;;;;;;8.05;4.62;;;;;;;22.25;59.32;98563.41;4372159;32;35223;-73
2023/08/30 07:50:29;;;;;;;8.07;4.60;;;;;;;22.43;58.63;98563.47;4369968;32;35375;-75
2023/08/30 07:52:57;;;;;;;10.52;5.10;;;;;;;22.02;60.12;98562.03;4371834;32;33282;-74
2023/08/30 07:55:25;;;;;;;11.00;4.62;;;;;;;22.03;60.06;98565.59;4362637;32;34856;-76
2023/08/30 07:57:52;;;;;;;9.02;4.50;;;;;;;22.25;59.36;98566.97;4363257;32;34366;-75
2023/08/30 08:00:20;;;;;;;6.90;4.25;;;;;;;22.09;59.08;98565.53;4368467;32;33920;-73
2023/08/30 08:02:48;;;;;;;8.60;4.60;;;;;;;21.82;59.95;98564.81;4365363;32;33294;-72
2023/08/30 08:05:16;;;;;;;13.32;5.25;;;;;;;22.31;58.67;98565.22;4367720;32;34937;-72
2023/08/30 08:07:44;;;;;;;8.95;4.40;;;;;;;22.19;58.51;98564.28;4368902;32;34892;-72
2023/08/30 08:10:12;;;;;;;12.63;3.92;;;;;;;22.19;58.72;98573.28;4368953;32;34374;-74
2023/08/30 08:12:39;;;;;;;7.00;3.78;;;;;;;21.74;60.69;98575.97;4368542;32;34521;-73
2023/08/30 08:15:07;;;;;;;6.57;4.65;;;;;;;21.58;61.26;98574.56;4371631;32;34676;-73
2023/08/30 08:17:35;;;;;;;5.87;3.40;;;;;;;21.39;62.13;98573.56;4367432;32;35303;-74
2023/08/30 08:20:05;;;;;;;7.05;4.07;;;;;;;22.04;60.10;98575.41;4334151;32;34114;-74
2023/08/30 08:22:33;;;;;;;11.27;4.47;;;;;;;22.26;59.18;98576.81;4340338;33;33252;-74
2023/08/30 08:25:00;;;;;;;9.70;4.05;;;;;;;22.13;60.11;98578.75;4339634;33;34546;-73
2023/08/30 08:27:28;;;;;;;8.38;4.20;;;;;;;21.71;60.88;98578.28;4334776;32;33882;-74
2023/08/30 08:29:55;;;;;;;9.00;4.50;;;;;;;21.87;60.50;98578.63;4336073;33;34123;-73
2023/08/30 08:32:23;;;;;;;9.00;4.10;;;;;;;22.24;58.72;98578.06;4337491;33;32284;-73
2023/08/30 08:34:51;;;;;;;8.80;5.07;;;;;;;21.48;61.97;98573.34;4337833;32;33629;-73
2023/08/30 08:37:18;;;;;;;16.95;5.20;;;;;;;22.07;60.19;98575.00;4339108;32;34157;-73
2023/08/30 08:39:46;;;;;;;6.90;4.10;;;;;;;21.94;60.72;98575.06;4335958;33;33679;-72
2023/08/30 08:42:17;;;;;;;9.40;4.45;;;;;;;21.76;60.46;98573.84;4338479;32;33553;-73
2023/08/30 08:44:51;;;;;;;9.02;4.03;;;;;;;21.99;59.90;98583.37;4329143;33;32883;-73
2023/08/30 08:47:20;;;;;;;6.40;3.35;;;;;;;22.41;58.72;98581.97;4327934;33;33895;-73
2023/08/30 08:49:49;;;;;;;7.62;5.03;;;;;;;22.21;59.89;98594.84;4335114;33;34099;-72
2023/08/30 08:52:17;;;;;;;10.10;4.43;;;;;;;22.08;59.31;98582.09;4341650;32;33441;-73
2023/08/30 08:55:00;;;;;;;10.00;4.10;;;;;;;21.93;60.29;98587.84;4362252;32;33955;-73
2023/08/30 08:57:32;;;;;;;11.63;6.50;;;;;;;22.48;58.28;98590.09;4357977;32;34026;-72
2023/08/30 09:00:00;;;;;;;8.98;4.93;;;;;;;22.46;58.58;98590.31;4361667;32;35040;-72
2023/08/30 09:02:28;;;;;;;12.82;4.60;;;;;;;22.48;57.99;98592.81;4361411;32;34682;-74
2023/08/30 09:04:58;;;;;;;8.10;4.97;;;;;;;22.35;58.70;98606.53;4349763;32;33377;-73
2023/08/30 09:07:28;;;;;;;6.18;3.45;;;;;;;22.16;58.47;98606.41;4363517;32;33597;-74
2023/08/30 09:09:56;;;;;;;8.75;4.55;;;;;;;22.60;56.99;98595.66;4362665;32;32573;-73
2023/08/30 09:12:23;;;;;;;9.02;4.25;;;;;;;22.59;57.06;98591.28;4350027;32;33316;-73
2023/08/30 09:14:57;;;;;;;9.15;4.72;;;;;;;21.96;59.42;98600.16;4353930;32;35320;-74
2023/08/30 09:17:38;;;;;;;9.13;4.37;;;;;;;21.94;59.78;98605.03;4367487;32;35793;-74
2023/08/30 09:20:07;;;;;;;10.52;3.90;;;;;;;21.80;60.78;98605.06;4373220;32;34521;-74
2023/08/30 09:22:42;;;;;;;7.15;3.78;;;;;;;21.70;60.20;98606.56;4367348;32;32464;-74
2023/08/30 09:25:24;;;;;;;5.97;3.55;;;;;;;22.42;58.09;98605.44;4357189;32;34021;-75
2023/08/30 09:28:01;;;;;;;7.10;4.30;;;;;;;22.38;58.12;98612.38;4357050;32;33735;-73
2023/08/30 09:30:31;;;;;;;8.82;3.92;;;;;;;22.63;56.91;98612.44;4354061;32;34770;-74
2023/08/30 09:33:02;;;;;;;5.45;3.85;;;;;;;22.90;56.40;98609.53;4327027;33;34454;-74
2023/08/30 09:35:31;;;;;;;7.68;4.00;;;;;;;23.06;56.37;98621.81;4328120;33;34300;-74
2023/08/30 09:37:59;;;;;;;9.10;3.55;;;;;;;22.90;57.27;98621.28;4326636;33;34101;-75
2023/08/30 09:40:26;;;;;;;5.53;2.87;;;;;;;22.92;56.71;98624.62;4327341;33;33389;-75
2023/08/30 09:42:54;;;;;;;5.28;3.10;;;;;;;23.03;56.61;98617.62;4329907;33;33533;-74
2023/08/30 09:45:39;;;;;;;6.95;3.75;;;;;;;23.06;56.80;98622.66;4325406;33;34755;-74
2023/08/30 09:48:08;;;;;;;12.80;4.25;;;;;;;22.69;57.55;98617.00;4326751;33;32816;-75
2023/08/30 09:50:36;;;;;;;7.20;3.25;;;;;;;22.95;57.06;98628.81;4327023;33;35069;-74
2023/08/30 09:53:10;;;;;;;7.43;2.90;;;;;;;23.11;56.77;98625.53;4314256;33;34646;-72
2023/08/30 09:55:39;;;;;;;5.82;3.15;;;;;;;23.21;56.55;98625.03;4329363;32;32399;-73
2023/08/30 09:58:07;;;;;;;7.53;4.00;;;;;;;23.30;56.37;98626.41;4341713;32;33824;-73
2023/08/30 10:00:36;;;;;;;9.85;3.67;;;;;;;23.31;55.90;98635.47;4339005;32;36757;-73
2023/08/30 10:03:04;;;;;;;6.47;4.15;;;;;;;23.02;56.46;98637.81;4331129;32;33455;-74
2023/08/30 10:05:36;;;;;;;8.10;3.78;;;;;;;22.99;56.40;98639.06;4297979;33;33501;-73
2023/08/30 10:08:07;;;;;;;6.93;3.35;;;;;;;22.85;57.05;98634.72;4296647;33;33878;-74
2023/08/30 10:10:35;;;;;;;7.95;3.58;;;;;;;23.17;56.35;98634.72;4297244;33;34195;-74
2023/08/30 10:13:03;;;;;;;7.93;3.17;;;;;;;22.85;58.02;98636.63;4293083;33;33319;-74
2023/08/30 10:15:41;;;;;;;7.10;4.00;;;;;;;23.22;57.06;98643.09;4298637;33;34739;-74
2023/08/30 10:18:09;;;;;;;6.07;3.62;;;;;;;23.15;57.11;98634.13;4296980;33;35074;-74
2023/08/30 10:20:38;;;;;;;8.10;4.55;;;;;;;23.04;56.76;98629.37;4298068;33;33836;-74
2023/08/30 10:23:08;;;;;;;7.00;3.83;;;;;;;23.15;56.30;98628.66;4297266;33;33666;-74
2023/08/30 10:25:38;;;;;;;7.15;3.65;;;;;;;23.09;56.93;98632.28;4293822;33;33720;-73
2023/08/30 10:28:06;;;;;;;9.07;3.25;;;;;;;23.01;57.15;98623.28;4294071;33;34119;-76
2023/08/30 10:30:33;;;;;;;5.65;3.17;;;;;;;22.91;57.47;98622.94;4257100;33;33853;-75
2023/08/30 10:33:03;;;;;;;7.30;3.75;;;;;;;22.42;59.68;98627.25;4257447;33;34786;-73
2023/08/30 10:35:30;;;;;;;7.12;3.10;;;;;;;22.61;58.90;98630.91;4259471;33;35103;-74
2023/08/30 10:37:59;;;;;;;6.72;3.62;;;;;;;22.67;58.79;98626.47;4333374;33;32832;-74
2023/08/30 10:40:27;;;;;;;6.87;3.53;;;;;;;23.08;57.87;98633.31;4330802;33;34839;-74
2023/08/30 10:43:02;;;;;;;6.97;3.62;;;;;;;23.05;57.49;98629.16;4330154;33;34599;-73
2023/08/30 10:45:30;;;;;;;;;;;;;;;22.81;58.04;98635.41;4333023;32;33854;-73
2023/08/30 10:47:59;;;;;;;7.53;3.47;;;;;;;22.69;58.46;98636.09;4330911;32;35150;-73
2023/08/30 10:50:34;;;;;;;5.22;3.37;;;;;;;22.68;58.99;98631.69;4328583;33;34181;-74
2023/08/30 10:53:01;;;;;;;9.25;3.10;;;;;;;22.85;57.35;98632.00;4325228;33;33696;-74
2023/08/30 10:55:29;;;;;;;7.43;3.03;;;;;;;23.38;56.14;98623.41;4329259;33;34914;-74
2023/08/30 10:58:04;;;;;;;8.43;2.90;;;;;;;23.31;57.01;98622.66;4343775;33;34020;-72
2023/08/30 11:00:33;;;;;;;4.62;2.80;;;;;;;23.17;57.39;98618.34;4327164;32;33867;-73
2023/08/30 11:03:01;;;;;;;7.20;3.17;;;;;;;23.25;56.98;98615.34;4368423;32;33439;-72
2023/08/30 11:05:29;;;;;;;6.12;3.00;;;;;;;23.00;57.95;98618.06;4365242;32;34770;-73
2023/08/30 11:07:57;;;;;;;13.38;3.58;;;;;;;23.31;57.32;98617.19;4370600;32;35255;-73
2023/08/30 11:10:25;;;;;;;5.80;3.08;;;;;;;23.49;56.51;98617.19;4366141;32;33713;-73
2023/08/30 11:12:53;;;;;;;4.90;2.92;;;;;;;22.87;58.07;98620.87;4368998;32;33174;-73
2023/08/30 11:15:21;;;;;;;5.75;2.35;;;;;;;22.78;58.74;98621.13;4374299;32;32441;-73
2023/08/30 11:17:49;;;;;;;5.87;2.62;;;;;;;22.99;57.16;98609.06;4374134;32;33810;-73
2023/08/30 11:20:19;;;;;;;5.95;3.58;;;;;;;23.76;55.27;98614.22;4366659;32;33597;-71
2023/08/30 11:22:48;;;;;;;4.55;2.12;;;;;;;23.41;56.06;98612.03;4372370;32;33346;-71
2023/08/30 11:25:16;;;;;;;4.40;2.20;;;;;;;24.05;54.13;98611.78;4360799;32;33755;-71
2023/08/30 11:27:45;;;;;;;3.30;2.03;;;;;;;24.07;54.31;98612.38;4375221;32;33708;-71
2023/08/30 11:30:13;;;;;;;4.43;2.47;;;;;;;23.68;55.41;98615.34;4370670;32;33978;-71
2023/08/30 11:32:45;;;;;;;7.62;3.12;;;;;;;23.76;54.36;98610.66;4371473;32;33372;-71
2023/08/30 11:35:12;;;;;;;3.58;1.92;;;;;;;23.62;55.29;98618.94;4373885;32;33615;-72
2023/08/30 11:37:42;;;;;;;4.20;1.80;;;;;;;23.22;56.58;98621.25;4371531;32;33866;-71
2023/08/30 11:40:11;;;;;;;3.17;2.00;;;;;;;23.57;55.13;98618.81;4366685;32;33051;-72